Tiempo atmosférico en la estación meteorológica de La Pobla de Benifassà-Fredes, Castelló/Castellón (1174 m.)



Fecha
DESCASC
Temp. máxima en grados centígrados (hora)
DESCASC
Temp. mínima en grados centígrados (hora)
DESCASC
Temp. media en grados centígrados
DESCASC
Racha de viento máxima en m/sg (hora)
DESCASC
Velocidad máxima media en intervalos de 10 minutos(hora)
DESCASC
Precipitaciones diarias en mm
DESCASC
Precipitaciones de 00:00 a 06:00 en mm
DESCASC
Precipitaciones de 06:00 a 12:00 en mm
DESCASC
Precipitaciones de 12:00 a 18:00 en mm
DESCASC
Precipitaciones de 18:00 a 24:00 en mm
DESCASC
22-04-2018 16.7 (11:50) 7.8 (06:20) 12.3 8.06 (17:30) 4.17 (16:30) 0 0 0 0 0
21-04-2018 16.3 (13:50) 5.6 (00:10) 10.9 9.72 (13:20) 4.72 (12:40) 0 0 0 0 0
20-04-2018 14 (14:40) 5.4 (01:20) 9.7 11.11 (16:20) 5.83 (16:00) 0 0 0 0 0
19-04-2018 13.9 (15:30) 6.4 (00:00) 10.1 10.28 (11:00) 5.56 (07:40) 0 0 0 0 0
18-04-2018 17.2 (14:40) 7 (00:00) 12.1 9.44 (16:20) 5 (13:50) 0 0 0 0 0
17-04-2018 16.1 (16:40) 4.8 (00:00) 10.5 8.33 (08:00) 5.83 (07:20) 0 0 0 0 0
16-04-2018 9.8 (02:40) 4.3 (00:00) 7.1 17.22 (12:00) 9.72 (12:00) 25.2 0 21 4.2 0
15-04-2018 15.4 (15:30) 4 (00:00) 9.7 13.06 (12:30) 6.67 (12:30) 0 0 0 0 0
14-04-2018 8.5 (18:20) 1.9 (00:00) 5.2 8.33 (11:30) 4.72 (12:40) 0.2 0 0 0.2 0
13-04-2018 8 (12:20) 3.3 (00:00) 5.6 6.94 (17:40) 3.61 (15:50) 8.2 1.6 6 0 0.6
12-04-2018 8.4 (18:20) -0.5 (-00:0) 3.9 18.06 (04:50) 10.83 (04:50) 2.4 0.6 1.8 0 0
11-04-2018 4.3 (00:50) -0.7 (-00:0) 1.8 13.61 (06:40) 8.06 (19:50) 15.6 10.6 1.8 3 0.2
10-04-2018 9 (11:30) -0.2 (00:00) 4.4 12.5 (23:30) 6.11 (03:00) 5.4 0 0 0.2 5.2
09-04-2018 11 (16:10) 2.3 (00:00) 6.6 13.89 (15:30) 6.67 (19:00) 0.2 0 0 0.2 0
08-04-2018 8.4 (15:20) 0.7 (00:00) 4.5 17.5 (10:50) 10.28 (10:50) 25.8 21.2 2.4 2.2 0
07-04-2018 7.1 (14:40) 4.9 (00:00) 6 11.67 (09:30) 6.39 (11:10) 5 0 0 0.4 4.6
06-04-2018 13.5 (13:00) 5.3 (00:00) 9.4 11.39 (16:30) 5.56 (16:30) 0 0 0 0 0
05-04-2018 15 (13:20) 4.2 (00:00) 9.6 18.33 (01:10) 9.72 (06:50) 0 0 0 0 0
04-04-2018 14.1 (15:00) 5.1 (00:00) 9.6 16.39 (23:50) 8.61 (23:59) 0 0 0 0 0
03-04-2018 13.9 (13:20) 8.7 (00:00) 11.3 7.22 (15:30) 3.61 (15:30) 0 0 0 0 0
02-04-2018 11.2 (14:30) 4.2 (00:00) 7.7 8.61 (05:50) 4.17 (12:20) 0 0 0 0 0
01-04-2018 12.4 (15:00) -0.3 (00:00) 6 11.67 (06:00) 6.39 (06:10) 0 0 0 0 0
31-03-2018 8 (15:50) 0.6 (00:00) 4.3 24.44 (05:10) 11.11 (06:10) 0 0 0 0 0
30-03-2018 9 (13:40) 1.8 (00:00) 5.4 13.06 (23:59) 6.67 (23:59) 2.8 0 0 2.8 0
29-03-2018 12.7 (13:40) 3.7 (00:00) 8.2 15.28 (05:40) 9.72 (03:30) 0 0 0 0 0
28-03-2018 19.3 (15:50) 8.5 (00:00) 13.9 17.5 (07:50) 10.56 (02:00) 0 0 0 0 0
27-03-2018 13.9 (17:10) 1.3 (00:00) 7.6 22.22 (01:20) 13.89 (02:00) 0 0 0 0 0

Gráficas

Temp. máximas Temp. mínimas Temp. medias Precipitaciones Rachas de viento máximas Velocidades máximas media en intervalos de 10 minutos

Datos horarios

Fecha y hora oficial Temperatura (ºC) Velocidad del viento (km/h) Dirección del viento Racha (km/h) Dirección de racha Precipitación (mm) Presión (hPa) Tendencia (hPa) Humedad (%)
2018-04-25 23:00:00 12.6 13 Oeste 22 Oeste 0 -- -- 47
2018-04-25 22:00:00 13.6 3 Noroeste 15 Nordeste 0 -- -- 36
2018-04-25 21:00:00 11.9 8 Noroeste 9 Noroeste 0 -- -- 61
2018-04-25 20:00:00 15 0 Calma 13 Este 0 -- -- 53
2018-04-25 19:00:00 15.7 6 Este 17 Nordeste 0 -- -- 53
2018-04-25 18:00:00 16.7 13 Este 27 Este 0 -- -- 47
2018-04-25 17:00:00 18 9 Este 26 Este 0 -- -- 42
2018-04-25 16:00:00 18.9 13 Este 34 Este 0 -- -- 45
2018-04-25 15:00:00 20.6 10 Este 26 Sudeste 0 -- -- 36
2018-04-25 14:00:00 20.5 10 Este 25 Este 0 -- -- 35
2018-04-25 13:00:00 19.8 9 Sudeste 24 Este 0 -- -- 35
2018-04-25 12:00:00 19.8 8 Este 16 Este 0 -- -- 37
2018-04-25 11:00:00 19 7 Este 15 Este 0 -- -- 31
2018-04-25 10:00:00 17.5 3 Este 9 Sudeste 0 -- -- 28
2018-04-25 09:00:00 14.7 3 Oeste 9 Oeste 0 -- -- 35
2018-04-25 08:00:00 11.5 5 Noroeste 7 Este 0 -- -- 33
2018-04-25 07:00:00 10.5 4 Nordeste 8 Este 0 -- -- 33
2018-04-25 06:00:00 10.3 4 Este 12 Este 0 -- -- 40
2018-04-25 05:00:00 12 3 Este 9 Este 0 -- -- 31
2018-04-25 04:00:00 10.4 5 Noroeste 7 Oeste 0 -- -- 36
2018-04-25 03:00:00 10 0 Calma 7 Sudeste 0 -- -- 48
2018-04-25 02:00:00 10.3 0 Calma 9 Este 0 -- -- 51
2018-04-25 01:00:00 10.9 5 Este 8 Este 0 -- -- 48
2018-04-25 00:00:00 10.4 3 Este 5 Este 0 -- -- 60
2018-04-24 23:00:00 10 0 Calma 4 Noroeste 0 -- -- 74
2018-04-24 22:00:00 11.2 2 Este 8 Este 0 -- -- 70
2018-04-24 21:00:00 13.1 2 Sudeste 5 Sudeste 0 -- -- 60
2018-04-24 20:00:00 14.9 0 Calma 6 Este 0 -- -- 58
2018-04-24 19:00:00 15.8 3 Este 13 Este 0 -- -- 53
2018-04-24 18:00:00 16 6 Este 15 Este 0 -- -- 52
2018-04-24 17:00:00 15.9 6 Sudeste 22 Este 0 -- -- 54
2018-04-24 16:00:00 16.6 12 Este 32 Este 0 -- -- 53
2018-04-24 15:00:00 18.1 14 Este 31 Este 0 -- -- 51
2018-04-24 14:00:00 18.1 16 Este 31 Este 0 -- -- 48
2018-04-24 13:00:00 17.9 11 Este 22 Sudeste 0 -- -- 47
2018-04-24 12:00:00 16.3 12 Este 23 Este 0 -- -- 51
2018-04-24 11:00:00 15.4 10 Este 24 Este 0 -- -- 51
2018-04-24 10:00:00 14.8 10 Este 21 Este 0 -- -- 56
2018-04-24 09:00:00 14.3 10 Este 20 Este 0 -- -- 47
2018-04-24 08:00:00 12.6 11 Este 19 Este 0 -- -- 45
2018-04-24 07:00:00 11.7 10 Este 18 Este 0 -- -- 55
2018-04-24 06:00:00 12.1 8 Este 18 Este 0 -- -- 68
2018-04-24 05:00:00 12.1 6 Nordeste 16 Nordeste 0 -- -- 68
2018-04-24 04:00:00 12.6 9 Este 21 Este 0 -- -- 65
2018-04-24 03:00:00 12.8 12 Este 21 Este 0 -- -- 64
2018-04-24 02:00:00 12.6 8 Nordeste 19 Este 0 -- -- 63
2018-04-24 01:00:00 12.8 9 Este 18 Nordeste 0 -- -- 68
2018-04-24 00:00:00 12.9 9 Este 15 Nordeste 0 -- -- 67
2018-04-23 23:00:00 11.2 3 Este 10 Nordeste 0 -- -- 72
2018-04-23 22:00:00 11.6 5 Norte 12 Oeste 0 -- -- 72
2018-04-23 21:00:00 12 9 Oeste 16 Oeste 0 -- -- 66
2018-04-23 20:00:00 14.4 9 Noroeste 19 Noroeste 0 -- -- 58
2018-04-23 19:00:00 16.6 8 Noroeste 14 Noroeste 0 -- -- 57
2018-04-23 18:00:00 18.2 5 Este 18 Este 0 -- -- 52
2018-04-23 17:00:00 18.9 8 Este 19 Este 0 -- -- 52
2018-04-23 16:00:00 19 9 Este 22 Este 0 -- -- 52
2018-04-23 15:00:00 19.2 10 Este 23 Este 0 -- -- 50
2018-04-23 14:00:00 18.8 8 Este 19 Este 0 -- -- 47
2018-04-23 13:00:00 18.7 9 Este 19 Este 0 -- -- 48
2018-04-23 12:00:00 18.8 8 Este 20 Noroeste 0 -- -- 45
2018-04-23 11:00:00 17.7 12 Noroeste 24 Norte 0 -- -- 39
2018-04-23 10:00:00 15.9 4 Noroeste 8 Noroeste 0 -- -- 41
2018-04-23 09:00:00 14.9 3 Oeste 14 Oeste 0 -- -- 51
2018-04-23 08:00:00 12.5 9 Oeste 15 Sudoeste 0 -- -- 40
2018-04-23 07:00:00 12.8 8 Sudoeste 19 Sur 0 -- -- 38
2018-04-23 06:00:00 11.2 8 Sur 14 Sur 0 -- -- 43
2018-04-23 05:00:00 11.1 5 Sur 11 Sur 0 -- -- 50
2018-04-23 04:00:00 10.9 3 Sudeste 13 Este 0 -- -- 52
2018-04-23 03:00:00 10.4 2 Sudeste 11 Sudeste 0 -- -- 52
2018-04-23 02:00:00 11.8 4 Sudeste 14 Sudeste 0 -- -- 43
2018-04-23 01:00:00 12.2 4 Sudeste 18 Sudeste 0 -- -- 41
2018-04-23 00:00:00 12.1 4 Sudeste 21 Sudeste 0 -- -- 46
2018-04-22 23:00:00 11.7 7 Sudeste 15 Sudeste 0 -- -- 56
2018-04-22 22:00:00 11.1 3 Sudeste 12 Sudeste 0 -- -- 68
2018-04-22 21:00:00 11.9 3 Sudeste 15 Este 0 -- -- 70
2018-04-22 20:00:00 13 5 Este 19 Este 0 -- -- 67
2018-04-22 19:00:00 14.8 8 Este 23 Este 0 -- -- 59
2018-04-22 18:00:00 15.3 10 Sudeste 29 Este 0 -- -- 58
2018-04-22 17:00:00 16.3 10 Sudeste 27 Este 0 -- -- 56
2018-04-22 16:00:00 15.7 9 Sudeste 22 Sudeste 0 -- -- 65
2018-04-22 15:00:00 13.7 10 Este 27 Sudeste 0 -- -- 72
2018-04-22 14:00:00 13.4 13 Este 23 Este 0 -- -- 62
2018-04-22 13:00:00 16.1 6 Este 18 Sudeste 0 -- -- 58
2018-04-22 12:00:00 16.6 11 Este 24 Este 0 -- -- 59
2018-04-22 11:00:00 15.8 6 Este 12 Nordeste 0 -- -- 59
2018-04-22 10:00:00 14 5 Este 14 Nordeste 0 -- -- 61
2018-04-22 09:00:00 12.2 6 Sudeste 15 Sudeste 0 -- -- 66
2018-04-22 08:00:00 9.4 3 Sudeste 8 Sudeste 0 -- -- 73
2018-04-22 07:00:00 9 4 Sudeste 9 Sudeste 0 -- -- 73
2018-04-22 06:00:00 7.9 0 Calma 4 Este 0 -- -- 78
2018-04-22 05:00:00 9.5 3 Sudeste 8 Sudeste 0 -- -- 71
2018-04-22 04:00:00 10 3 Sudeste 13 Sudeste 0 -- -- 68
2018-04-22 03:00:00 10.2 6 Sudeste 20 Este 0 -- -- 67
2018-04-22 02:00:00 10.6 8 Sudeste 18 Sudeste 0 -- -- 66
2018-04-22 01:00:00 10.4 7 Sudeste 18 Este 0 -- -- 68
2018-04-22 00:00:00 9.4 4 Sudeste 15 Sur 0 -- -- 72
2018-04-21 23:00:00 9.5 4 Sudeste 13 Sudeste 0 -- -- 72
2018-04-21 22:00:00 9.6 4 Sudeste 13 Sur 0 -- -- 72
2018-04-21 21:00:00 9.4 0 Calma 7 Este 0 -- -- 82
2018-04-21 20:00:00 11 4 Sudeste 18 Este 0 -- -- 79
2018-04-21 19:00:00 11.9 7 Este 21 Este 0 -- -- 75
2018-04-21 18:00:00 12.8 9 Este 24 Este 0 -- -- 72
2018-04-21 17:00:00 13.7 9 Este 24 Este 0 -- -- 67
2018-04-21 16:00:00 14.3 12 Este 32 Este 0 -- -- 66
2018-04-21 15:00:00 14.8 13 Este 28 Este 0 -- -- 66
2018-04-21 14:00:00 16 12 Este 35 Este 0 -- -- 60
2018-04-21 13:00:00 15.4 14 Este 33 Este 0 -- -- 59
2018-04-21 12:00:00 15 11 Sudeste 27 Este 0 -- -- 64
2018-04-21 11:00:00 13.8 12 Este 28 Este 0 -- -- 68
2018-04-21 10:00:00 12.7 12 Este 21 Este 0 -- -- 73
2018-04-21 09:00:00 11.1 7 Este 13 Este 0 -- -- 83
2018-04-21 08:00:00 6.5 4 Este 9 Este 0 -- -- 99
2018-04-21 07:00:00 6 0 Calma 4 Norte 0 -- -- 98
2018-04-21 06:00:00 6.2 0 Calma 9 Este 0 -- -- 97
2018-04-21 05:00:00 6 0 Calma 5 Sudeste 0 -- -- 97
2018-04-21 04:00:00 5.8 0 Calma 8 Sudeste 0 -- -- 97
2018-04-21 03:00:00 5.9 0 Calma 7 Sudeste 0 -- -- 97
2018-04-21 02:00:00 5.9 2 Sudeste 8 Sur 0 -- -- 96
2018-04-21 01:00:00 6.1 0 Calma 4 Este 0 -- -- 96
2018-04-21 00:00:00 5.7 0 Calma 7 Este 0 -- -- 94
2018-04-20 23:00:00 6 2 Sur 5 Sur 0 -- -- 94
2018-04-20 22:00:00 6.8 0 Calma 5 Sudeste 0 -- -- 91
2018-04-20 21:00:00 8.5 2 Sudeste 15 Sur 0 -- -- 86
2018-04-20 20:00:00 9.9 5 Sudeste 27 Este 0 -- -- 82
2018-04-20 19:00:00 10.9 12 Este 35 Este 0 -- -- 76
2018-04-20 18:00:00 11.7 19 Este 39 Este 0 -- -- 72
2018-04-20 17:00:00 12.2 18 Este 40 Este 0 -- -- 73
2018-04-20 16:00:00 12.6 21 Este 39 Este 0 -- -- 72
2018-04-20 15:00:00 13.3 15 Este 35 Este 0 -- -- 71
2018-04-20 14:00:00 13.7 15 Este 37 Este 0 -- -- 65
2018-04-20 13:00:00 13.5 17 Este 33 Este 0 -- -- 63
2018-04-20 12:00:00 13.1 13 Este 30 Este 0 -- -- 69
2018-04-20 11:00:00 12.1 11 Este 24 Este 0 -- -- 77
2018-04-20 10:00:00 11.3 9 Este 21 Sudeste 0 -- -- 78
2018-04-20 09:00:00 10 8 Este 18 Este 0 -- -- 85
2018-04-20 08:00:00 8 6 Este 15 Este 0 -- -- 90
2018-04-20 07:00:00 7.3 5 Este 10 Nordeste 0 -- -- 92
2018-04-20 06:00:00 6.4 4 Este 14 Este 0 -- -- 92
2018-04-20 05:00:00 6.3 6 Este 13 Este 0 -- -- 95
2018-04-20 04:00:00 6.1 4 Este 13 Sudeste 0 -- -- 92
2018-04-20 03:00:00 6.5 5 Este 14 Este 0 -- -- 94
2018-04-20 02:00:00 5.5 4 Este 12 Sudeste 0 -- -- 96
2018-04-20 01:00:00 5.6 2 Este 9 Este 0 -- -- 94
2018-04-20 00:00:00 6.4 0 Calma 8 Este 0 -- -- 92
2018-04-19 23:00:00 6.5 0 Calma 7 Este 0 -- -- 90
2018-04-19 22:00:00 7.1 0 Calma 7 Este 0 -- -- 86
2018-04-19 21:00:00 8.9 3 Sudeste 12 Este 0 -- -- 80
2018-04-19 20:00:00 10.3 6 Sudeste 19 Este 0 -- -- 76
2018-04-19 19:00:00 11.7 8 Sudeste 21 Este 0 -- -- 72
2018-04-19 18:00:00 12.7 7 Este 30 Este 0 -- -- 68
2018-04-19 17:00:00 12.6 15 Este 33 Este 0 -- -- 68
2018-04-19 16:00:00 12.4 12 Este 31 Este 0 -- -- 70
2018-04-19 15:00:00 13.4 13 Este 31 Este 0 -- -- 72
2018-04-19 14:00:00 12.2 17 Este 33 Este 0 -- -- 76
2018-04-19 13:00:00 11.3 13 Este 32 Este 0 -- -- 77
2018-04-19 12:00:00 10.9 17 Este 36 Este 0 -- -- 77
2018-04-19 11:00:00 10.9 15 Este 37 Este 0 -- -- 80
2018-04-19 10:00:00 11.7 11 Este 24 Este 0 -- -- 79
2018-04-19 09:00:00 10.4 12 Este 28 Nordeste 0 -- -- 76
2018-04-19 08:00:00 9.4 12 Este 35 Este 0 -- -- 76
2018-04-19 07:00:00 9.4 17 Nordeste 31 Nordeste 0 -- -- 73
2018-04-19 06:00:00 9.7 11 Nordeste 21 Nordeste 0 -- -- 67
2018-04-19 05:00:00 9.6 10 Nordeste 16 Nordeste 0 -- -- 70
2018-04-19 04:00:00 8.8 5 Este 14 Este 0 -- -- 72
2018-04-19 03:00:00 8.1 3 Oeste 6 Este 0 -- -- 75
2018-04-19 02:00:00 8.5 5 Este 13 Este 0 -- -- 77
2018-04-19 01:00:00 6.7 4 Este 10 Sudeste 0 -- -- 83
2018-04-19 00:00:00 7 4 Este 10 Este 0 -- -- 84
2018-04-18 23:00:00 7.5 4 Este 10 Este 0 -- -- 80
2018-04-18 22:00:00 8.6 2 Este 9 Este 0 -- -- 76
2018-04-18 21:00:00 10.4 2 Este 15 Nordeste 0 -- -- 75
2018-04-18 20:00:00 12.4 9 Este 26 Este 0 -- -- 69
2018-04-18 19:00:00 14.1 10 Este 30 Este 0 -- -- 68
2018-04-18 18:00:00 15.3 14 Este 33 Sudeste 0 -- -- 62
2018-04-18 17:00:00 16.2 16 Este 34 Este 0 -- -- 58
2018-04-18 16:00:00 16.9 14 Este 33 Este 0 -- -- 60
2018-04-18 15:00:00 17.2 14 Este 30 Este 0 -- -- 54
2018-04-18 14:00:00 16.7 13 Este 31 Este 0 -- -- 52
2018-04-18 13:00:00 17 10 Este 27 Este 0 -- -- 51
2018-04-18 12:00:00 16.4 8 Este 25 Este 0 -- -- 51
2018-04-18 11:00:00 15.8 7 Este 17 Este 0 -- -- 54
2018-04-18 10:00:00 15.2 8 Este 13 Este 0 -- -- 59
2018-04-18 09:00:00 13.9 4 Este 10 Este 0 -- -- 61
2018-04-18 08:00:00 9.2 0 Calma 4 Este 0 -- -- 77
2018-04-18 07:00:00 7.9 0 Calma 3 Sudeste 0 -- -- 83
2018-04-18 06:00:00 8.1 0 Calma 5 Sudeste 0 -- -- 81
2018-04-18 05:00:00 8.1 3 Sur 8 Sudeste 0 -- -- 83
2018-04-18 04:00:00 7.8 0 Calma 5 Este 0 -- -- 82
2018-04-18 03:00:00 7.9 0 Calma 4 Este 0 -- -- 81
2018-04-18 02:00:00 8.7 0 Calma 5 Sudeste 0 -- -- 79
2018-04-18 01:00:00 8.8 0 Calma 6 Sudeste 0 -- -- 81
2018-04-18 00:00:00 9.6 2 Sudeste 5 Sudeste 0 -- -- 79
2018-04-17 23:00:00 9.4 4 Sur 6 Sur 0 -- -- 79
2018-04-17 22:00:00 9.1 3 Oeste 4 Oeste 0 -- -- 82
2018-04-17 21:00:00 10.5 2 Sudeste 4 Este 0 -- -- 76
2018-04-17 20:00:00 12.5 3 Este 12 Este 0 -- -- 69
2018-04-17 19:00:00 13.8 6 Este 16 Este 0 -- -- 66
2018-04-17 18:00:00 15.3 8 Este 19 Este 0 -- -- 62
2018-04-17 17:00:00 15.7 10 Este 22 Este 0 -- -- 62
2018-04-17 16:00:00 15.6 7 Este 18 Este 0 -- -- 64
2018-04-17 15:00:00 15.1 6 Este 19 Sudeste 0 -- -- 66
2018-04-17 14:00:00 15.1 7 Este 22 Sudeste 0 -- -- 61
2018-04-17 13:00:00 14.9 8 Sudoeste 17 Oeste 0 -- -- 54
2018-04-17 12:00:00 13.5 5 Noroeste 22 Noroeste 0 -- -- 61
2018-04-17 11:00:00 11.7 13 Oeste 24 Oeste 0 -- -- 71
2018-04-17 10:00:00 10 15 Oeste 27 Oeste 0 -- -- 75
2018-04-17 09:00:00 8 16 Oeste 28 Oeste 0 -- -- 82
2018-04-17 08:00:00 6.5 20 Oeste 30 Oeste 0 -- -- 89
2018-04-17 07:00:00 6.3 20 Oeste 28 Oeste 0 -- -- 89
2018-04-17 06:00:00 5.5 19 Oeste 26 Oeste 0 -- -- 96
2018-04-17 05:00:00 5.7 15 Oeste 23 Oeste 0 -- -- 96
2018-04-17 04:00:00 5.7 17 Oeste 25 Oeste 0 -- -- 95
2018-04-17 03:00:00 5.6 17 Oeste 24 Oeste 0 -- -- 93
2018-04-17 02:00:00 5.3 19 Oeste 24 Oeste 0 -- -- 98
2018-04-17 01:00:00 5.1 16 Oeste 24 Oeste 0 -- -- 99
2018-04-17 00:00:00 5.8 20 Oeste 31 Oeste 0 -- -- 99
2018-04-16 23:00:00 6.2 19 Oeste 38 Oeste 0 -- -- 100
2018-04-16 22:00:00 6.5 20 Oeste 39 Oeste 0 -- -- 100
2018-04-16 21:00:00 6.2 23 Oeste 41 Oeste 0 -- -- 100
2018-04-16 20:00:00 6.1 22 Oeste 39 Noroeste 0 -- -- 100
2018-04-16 19:00:00 5.9 26 Oeste 44 Oeste 0 -- -- 100
2018-04-16 18:00:00 6 29 Oeste 50 Noroeste 0.2 -- -- 100
2018-04-16 17:00:00 6.1 31 Noroeste 54 Noroeste 0.2 -- -- 100
2018-04-16 16:00:00 5.6 30 Oeste 57 Oeste 0.2 -- -- 100
2018-04-16 15:00:00 4.9 31 Oeste 59 Oeste 0 -- -- 99
2018-04-16 14:00:00 4.6 30 Oeste 50 Oeste 0.6 -- -- 99
2018-04-16 13:00:00 5 31 Oeste 58 Oeste 3 -- -- 99
2018-04-16 12:00:00 4.3 35 Oeste 62 Oeste 11.8 -- -- 99
2018-04-16 11:00:00 4.7 31 Oeste 55 Oeste 3.6 -- -- 98
2018-04-16 10:00:00 5.1 30 Noroeste 50 Oeste 0.8 -- -- 98
2018-04-16 09:00:00 5 23 Oeste 42 Oeste 4.8 -- -- 96
2018-04-16 08:00:00 8.9 14 Oeste 24 Oeste 0 -- -- 84
2018-04-16 07:00:00 9.6 4 Este 15 Este 0 -- -- 79
2018-04-16 06:00:00 9.4 6 Sudeste 17 Sudeste 0 -- -- 81
2018-04-16 05:00:00 8.5 3 Sudeste 12 Este 0 -- -- 86
2018-04-16 04:00:00 8.9 0 Calma 4 Este 0 -- -- 83
2018-04-16 03:00:00 9.5 0 Calma 4 Sudeste 0 -- -- 81
2018-04-16 02:00:00 9.1 3 Sur 6 Sudoeste 0 -- -- 82
2018-04-16 01:00:00 8.8 3 Sur 8 Oeste 0 -- -- 82
2018-04-16 00:00:00 8.8 4 Noroeste 8 Oeste 0 -- -- 84
2018-04-15 23:00:00 9.8 4 Nordeste 14 Oeste 0 -- -- 81
2018-04-15 22:00:00 9.3 11 Oeste 16 Oeste 0 -- -- 83
2018-04-15 21:00:00 10.3 11 Oeste 21 Oeste 0 -- -- 79
2018-04-15 20:00:00 11.8 13 Noroeste 23 Oeste 0 -- -- 72
2018-04-15 19:00:00 12.5 12 Oeste 25 Noroeste 0 -- -- 69
2018-04-15 18:00:00 13.3 10 Noroeste 22 Noroeste 0 -- -- 68
2018-04-15 17:00:00 13.8 12 Oeste 28 Sudoeste 0 -- -- 62
2018-04-15 16:00:00 14.7 10 Oeste 33 Oeste 0 -- -- 61
2018-04-15 15:00:00 15 19 Oeste 39 Oeste 0 -- -- 59
2018-04-15 14:00:00 15.2 18 Oeste 35 Sudoeste 0 -- -- 56
2018-04-15 13:00:00 13.5 13 Noroeste 47 Noroeste 0 -- -- 59
2018-04-15 12:00:00 12.7 21 Noroeste 40 Noroeste 0 -- -- 60
2018-04-15 11:00:00 11.7 17 Noroeste 34 Oeste 0 -- -- 59
2018-04-15 10:00:00 10.7 13 Oeste 32 Oeste 0 -- -- 64
2018-04-15 09:00:00 8.5 14 Oeste 29 Oeste 0 -- -- 68
2018-04-15 08:00:00 6.1 15 Noroeste 31 Oeste 0 -- -- 67
2018-04-15 07:00:00 4.2 18 Oeste 37 Oeste 0 -- -- 85
2018-04-15 06:00:00 4.6 19 Oeste 35 Oeste 0 -- -- 84
2018-04-15 05:00:00 4.3 20 Oeste 30 Oeste 0 -- -- 91
2018-04-15 04:00:00 4.5 19 Oeste 28 Oeste 0 -- -- 90
2018-04-15 03:00:00 5.1 8 Noroeste 14 Oeste 0 -- -- 87
2018-04-15 02:00:00 4.5 10 Oeste 18 Oeste 0 -- -- 94
2018-04-15 01:00:00 4 8 Oeste 12 Oeste 0 -- -- 95
2018-04-15 00:00:00 4.3 7 Oeste 9 Oeste 0 -- -- 95
2018-04-14 23:00:00 5.2 5 Noroeste 13 Noroeste 0 -- -- 92
2018-04-14 22:00:00 5.4 8 Oeste 16 Noroeste 0 -- -- 94
2018-04-14 21:00:00 6.2 8 Noroeste 21 Oeste 0 -- -- 91
2018-04-14 20:00:00 6.9 14 Noroeste 27 Noroeste 0 -- -- 87
2018-04-14 19:00:00 7.5 13 Noroeste 27 Noroeste 0 -- -- 86
2018-04-14 18:00:00 7.8 12 Noroeste 25 Noroeste 0 -- -- 83
2018-04-14 17:00:00 6.6 9 Noroeste 19 Noroeste 0.2 -- -- 90
2018-04-14 16:00:00 7.2 10 Noroeste 23 Norte 0 -- -- 89
2018-04-14 15:00:00 8.1 10 Noroeste 29 Noroeste 0 -- -- 84
2018-04-14 14:00:00 8.1 13 Noroeste 27 Noroeste 0 -- -- 87
2018-04-14 13:00:00 8.2 12 Noroeste 28 Noroeste 0 -- -- 87
2018-04-14 12:00:00 6.7 14 Noroeste 30 Noroeste 0 -- -- 90
2018-04-14 11:00:00 5.7 15 Noroeste 29 Oeste 0 -- -- 97
2018-04-14 10:00:00 3.9 13 Oeste 23 Sudoeste 0 -- -- 99
2018-04-14 09:00:00 3.1 9 Oeste 20 Oeste 0 -- -- 98
2018-04-14 08:00:00 2.4 11 Oeste 19 Oeste 0 -- -- 96
2018-04-14 07:00:00 2.1 7 Noroeste 19 Oeste 0 -- -- 96
2018-04-14 06:00:00 2.1 7 Noroeste 14 Noroeste 0 -- -- 95
2018-04-14 05:00:00 2.6 9 Oeste 19 Noroeste 0 -- -- 97
2018-04-14 04:00:00 2.1 3 Noroeste 6 Oeste 0 -- -- 98
2018-04-14 03:00:00 2.5 0 Calma 4 Este 0 -- -- 98
2018-04-14 02:00:00 3.1 2 Este 4 Sudeste 0 -- -- 98
2018-04-14 01:00:00 3.1 2 Este 4 Sur 0 -- -- 98
2018-04-14 00:00:00 3.3 0 Calma 4 Sur 0 -- -- 97
2018-04-13 23:00:00 4.5 2 Noroeste 16 Este 0 -- -- 98
2018-04-13 22:00:00 4.8 3 Sudeste 11 Este 0 -- -- 98
2018-04-13 21:00:00 4.7 2 Norte 8 Este 0.6 -- -- 95
2018-04-13 20:00:00 4.9 0 Calma 14 Oeste 0 -- -- 92
2018-04-13 19:00:00 4.4 10 Oeste 24 Oeste 0 -- -- 90
2018-04-13 18:00:00 6.8 6 Este 25 Este 0 -- -- 93
2018-04-13 17:00:00 7.1 9 Este 22 Este 0 -- -- 93
2018-04-13 16:00:00 7.3 8 Este 23 Sudeste 0 -- -- 94
2018-04-13 15:00:00 7.1 9 Este 18 Este 0 -- -- 94
2018-04-13 14:00:00 6.7 4 Oeste 15 Oeste 0 -- -- 83
2018-04-13 13:00:00 7.6 4 Este 18 Este 0 -- -- 87
2018-04-13 12:00:00 7.4 5 Este 15 Este 0 -- -- 94
2018-04-13 11:00:00 7.2 5 Este 13 Sudeste 0 -- -- 98
2018-04-13 10:00:00 4.8 3 Este 8 Sur 0.2 -- -- 99
2018-04-13 09:00:00 3.4 5 Sur 16 Sur 4.4 -- -- 98
2018-04-13 08:00:00 3.8 4 Sudeste 10 Este 0.6 -- -- 98
2018-04-13 07:00:00 4.1 3 Este 14 Sudeste 0.8 -- -- 98
2018-04-13 06:00:00 4.3 5 Este 17 Sudeste 1.2 -- -- 98
2018-04-13 05:00:00 4.5 4 Este 13 Sudeste 0.2 -- -- 97
2018-04-13 04:00:00 4.2 2 Sudeste 9 Este 0.2 -- -- 96
2018-04-13 03:00:00 4.2 2 Sudeste 9 Sudeste 0 -- -- 95
2018-04-13 02:00:00 3.5 2 Sudeste 8 Este 0 -- -- 93
2018-04-13 01:00:00 3.5 0 Calma 8 Este 0 -- -- 91
2018-04-13 00:00:00 3.6 2 Nordeste 6 Este 0 -- -- 89
2018-04-12 23:00:00 4.9 4 Este 13 Nordeste 0 -- -- 82
2018-04-12 22:00:00 5.1 6 Este 14 Este 0 -- -- 85
2018-04-12 21:00:00 5.3 2 Este 8 Este 0 -- -- 89
2018-04-12 20:00:00 5.7 2 Este 17 Este 0 -- -- 87
2018-04-12 19:00:00 6.5 9 Este 18 Este 0 -- -- 85
2018-04-12 18:00:00 8.3 8 Oeste 21 Sudoeste 0 -- -- 81
2018-04-12 17:00:00 8.1 13 Oeste 32 Oeste 0 -- -- 82
2018-04-12 16:00:00 6.5 18 Oeste 40 Oeste 0 -- -- 88
2018-04-12 15:00:00 5.6 22 Oeste 54 Oeste 0 -- -- 91
2018-04-12 14:00:00 4.7 24 Oeste 44 Oeste 0 -- -- 99
2018-04-12 13:00:00 3.5 21 Oeste 42 Oeste 0 -- -- 100
2018-04-12 12:00:00 3 21 Oeste 51 Oeste 0 -- -- 100
2018-04-12 11:00:00 2.8 28 Oeste 62 Oeste 0 -- -- 100
2018-04-12 10:00:00 2.3 30 Oeste 59 Oeste 0.2 -- -- 100
2018-04-12 09:00:00 1.9 30 Oeste 55 Oeste 0.8 -- -- 100
2018-04-12 08:00:00 1.5 26 Oeste 53 Oeste 0.6 -- -- 100
2018-04-12 07:00:00 1.3 23 Oeste 51 Oeste 0.2 -- -- 100
2018-04-12 06:00:00 1.1 29 Noroeste 64 Noroeste 0.2 -- -- 100
2018-04-12 05:00:00 0.7 35 Noroeste 65 Oeste 0.4 -- -- 100
2018-04-12 04:00:00 0.3 23 Noroeste 47 Noroeste 0 -- -- 100
2018-04-12 03:00:00 -0.1 11 Oeste 32 Oeste 0 -- -- 100
2018-04-12 02:00:00 -0.4 16 Oeste 37 Oeste 0 -- -- 100
2018-04-12 01:00:00 -0.5 15 Oeste 37 Oeste 0 -- -- 99
2018-04-12 00:00:00 -0.3 18 Oeste 43 Oeste 0 -- -- 99
2018-04-11 23:00:00 -0.2 24 Oeste 41 Oeste 0 -- -- 100
2018-04-11 22:00:00 0 24 Oeste 45 Oeste 0 -- -- 100
2018-04-11 21:00:00 -0.2 28 Oeste 48 Oeste 0 -- -- 100
2018-04-11 20:00:00 0.1 28 Oeste 49 Oeste 0.2 -- -- 99
2018-04-11 19:00:00 0.9 23 Oeste 49 Oeste 0 -- -- 99
2018-04-11 18:00:00 1.2 22 Noroeste 42 Oeste 0 -- -- 99
2018-04-11 17:00:00 1.5 17 Oeste 33 Noroeste 0.8 -- -- 99
2018-04-11 16:00:00 2.5 12 Noroeste 24 Oeste 0.6 -- -- 100
2018-04-11 15:00:00 0.9 8 Noroeste 18 Oeste 1.4 -- -- 99
2018-04-11 14:00:00 2 10 Oeste 21 Oeste 0 -- -- 99
2018-04-11 13:00:00 1.5 11 Oeste 23 Oeste 0.2 -- -- 100
2018-04-11 12:00:00 0 15 Oeste 32 Noroeste 0.4 -- -- 100
2018-04-11 11:00:00 -0.2 19 Oeste 44 Oeste 1.2 -- -- 99
2018-04-11 10:00:00 -0.6 25 Oeste 48 Oeste 0 -- -- 99
2018-04-11 09:00:00 -0.6 24 Oeste 48 Oeste 0 -- -- 99
2018-04-11 08:00:00 -0.1 19 Oeste 44 Oeste 0.2 -- -- 99
2018-04-11 07:00:00 0.5 27 Oeste 49 Oeste 0 -- -- 99
2018-04-11 06:00:00 0.8 22 Oeste 48 Oeste 0.2 -- -- 99
2018-04-11 05:00:00 0.9 18 Noroeste 32 Oeste 0.2 -- -- 99
2018-04-11 04:00:00 1.1 16 Oeste 35 Oeste 1 -- -- 99
2018-04-11 03:00:00 1.2 15 Oeste 32 Oeste 2.2 -- -- 99
2018-04-11 02:00:00 4 4 Sur 29 Este 2.2 -- -- 99
2018-04-11 01:00:00 4.3 10 Sudeste 44 Este 4.8 -- -- 99
2018-04-11 00:00:00 3.6 15 Este 45 Nordeste 2 -- -- 99
2018-04-10 23:00:00 3.1 15 Este 39 Sudeste 2.2 -- -- 99
2018-04-10 22:00:00 3.1 14 Este 38 Este 0.6 -- -- 98
2018-04-10 21:00:00 3 9 Este 33 Este 0.2 -- -- 98
2018-04-10 20:00:00 2.8 9 Sudeste 39 Sur 0.2 -- -- 97
2018-04-10 19:00:00 2.8 10 Sudeste 35 Sur 0 -- -- 94
2018-04-10 18:00:00 3.2 10 Sudeste 33 Sudeste 0.2 -- -- 90
2018-04-10 17:00:00 4.8 9 Sur 35 Este 0 -- -- 78
2018-04-10 16:00:00 4.9 6 Sudeste 31 Sur 0 -- -- 82
2018-04-10 15:00:00 6.1 8 Sudeste 24 Este 0 -- -- 72
2018-04-10 14:00:00 7.1 6 Sudeste 18 Este 0 -- -- 69
2018-04-10 13:00:00 7.3 9 Este 28 Este 0 -- -- 64
2018-04-10 12:00:00 8.5 13 Este 26 Este 0 -- -- 62
2018-04-10 11:00:00 7.5 7 Sudeste 19 Sur 0 -- -- 63
2018-04-10 10:00:00 6.1 4 Sur 15 Este 0 -- -- 65
2018-04-10 09:00:00 3.4 3 Sudeste 15 Sur 0 -- -- 72
2018-04-10 08:00:00 1.2 2 Este 9 Sudeste 0 -- -- 81
2018-04-10 07:00:00 -0.2 2 Sudoeste 8 Sudoeste 0 -- -- 85
2018-04-10 06:00:00 0.9 6 Sudoeste 16 Sudoeste 0 -- -- 81
2018-04-10 05:00:00 1.2 6 Sudoeste 26 Oeste 0 -- -- 81
2018-04-10 04:00:00 0.9 12 Oeste 38 Oeste 0 -- -- 84
2018-04-10 03:00:00 1.6 22 Oeste 40 Oeste 0 -- -- 80
2018-04-10 02:00:00 0.9 9 Oeste 15 Oeste 0 -- -- 78
2018-04-10 01:00:00 1.8 8 Oeste 32 Sudoeste 0 -- -- 74
2018-04-10 00:00:00 2.3 15 Oeste 35 Noroeste 0 -- -- 73
2018-04-09 23:00:00 2.6 18 Oeste 37 Oeste 0 -- -- 71
2018-04-09 22:00:00 2.6 18 Oeste 32 Oeste 0 -- -- 73
2018-04-09 21:00:00 2.5 10 Oeste 24 Noroeste 0 -- -- 77
2018-04-09 20:00:00 4.1 15 Oeste 37 Oeste 0 -- -- 66
2018-04-09 19:00:00 5.6 24 Oeste 49 Oeste 0 -- -- 67
2018-04-09 18:00:00 6.5 12 Oeste 33 Oeste 0.2 -- -- 75
2018-04-09 17:00:00 7.5 13 Noroeste 30 Sudeste 0 -- -- 71
2018-04-09 16:00:00 10.7 14 Sudeste 50 Este 0 -- -- 39
2018-04-09 15:00:00 9.3 16 Este 36 Este 0 -- -- 69
2018-04-09 14:00:00 9.1 12 Este 28 Este 0 -- -- 73
2018-04-09 13:00:00 9.8 9 Este 26 Este 0 -- -- 65
2018-04-09 12:00:00 8.6 9 Este 28 Este 0 -- -- 69
2018-04-09 11:00:00 8.8 12 Este 26 Este 0 -- -- 70
2018-04-09 10:00:00 6.5 6 Este 13 Este 0 -- -- 76
2018-04-09 09:00:00 5.8 3 Este 13 Sudeste 0 -- -- 78
2018-04-09 08:00:00 4.5 2 Este 6 Oeste 0 -- -- 75
2018-04-09 07:00:00 2.7 6 Oeste 15 Oeste 0 -- -- 83
2018-04-09 06:00:00 3.4 12 Oeste 23 Oeste 0 -- -- 83
2018-04-09 05:00:00 3.9 17 Oeste 29 Oeste 0 -- -- 82
2018-04-09 04:00:00 3.9 19 Oeste 34 Noroeste 0 -- -- 84
2018-04-09 03:00:00 4 15 Oeste 31 Oeste 0 -- -- 85
2018-04-09 02:00:00 4.2 17 Oeste 29 Oeste 0 -- -- 86
2018-04-09 01:00:00 4.1 12 Oeste 30 Oeste 0 -- -- 87
2018-04-09 00:00:00 4.2 15 Oeste 26 Oeste 0 -- -- 92
2018-04-08 23:00:00 4.2 12 Oeste 25 Oeste 0 -- -- 94
2018-04-08 22:00:00 4.3 11 Oeste 28 Oeste 0 -- -- 93
2018-04-08 21:00:00 4.5 12 Oeste 32 Noroeste 0 -- -- 91
2018-04-08 20:00:00 5.4 16 Oeste 48 Oeste 0 -- -- 90
2018-04-08 19:00:00 6.3 21 Oeste 46 Oeste 0 -- -- 85
2018-04-08 18:00:00 5.9 24 Oeste 49 Oeste 0 -- -- 92
2018-04-08 17:00:00 5.7 26 Oeste 50 Oeste 1.2 -- -- 97
2018-04-08 16:00:00 5.5 25 Oeste 51 Noroeste 0.8 -- -- 90
2018-04-08 15:00:00 7.8 31 Noroeste 59 Oeste 0 -- -- 84
2018-04-08 14:00:00 6.1 31 Oeste 58 Noroeste 0.2 -- -- 100
2018-04-08 13:00:00 5.7 35 Noroeste 62 Noroeste 0 -- -- 98
2018-04-08 12:00:00 4.6 34 Oeste 61 Oeste 0 -- -- 99
2018-04-08 11:00:00 3.7 35 Noroeste 63 Noroeste 0 -- -- 100
2018-04-08 10:00:00 2.8 34 Oeste 55 Oeste 0.2 -- -- 100
2018-04-08 09:00:00 2.3 34 Oeste 54 Oeste 0 -- -- 100
2018-04-08 08:00:00 1.6 30 Oeste 49 Oeste 1.4 -- -- 100
2018-04-08 07:00:00 0.9 26 Oeste 48 Oeste 0.8 -- -- 100
2018-04-08 06:00:00 1.5 29 Oeste 49 Oeste 0 -- -- 100
2018-04-08 05:00:00 1.4 29 Oeste 45 Oeste 0 -- -- 100
2018-04-08 04:00:00 1.9 26 Oeste 45 Noroeste 0.4 -- -- 100
2018-04-08 03:00:00 2.4 21 Oeste 37 Noroeste 5 -- -- 100
2018-04-08 02:00:00 2 20 Oeste 44 Oeste 13.2 -- -- 100
2018-04-08 01:00:00 6.8 15 Este 37 Este 2.6 -- -- 100
2018-04-08 00:00:00 6.8 9 Nordeste 36 Este 1.8 -- -- 100
2018-04-07 23:00:00 6.8 12 Este 32 Sudeste 1.2 -- -- 100
2018-04-07 22:00:00 6.8 12 Este 32 Este 0.2 -- -- 100
2018-04-07 21:00:00 6.8 14 Este 32 Este 0.6 -- -- 100
2018-04-07 20:00:00 6.8 13 Este 30 Nordeste 0.4 -- -- 100
2018-04-07 19:00:00 6.8 10 Este 33 Este 0.4 -- -- 100
2018-04-07 18:00:00 6.8 12 Este 33 Este 0.2 -- -- 100
2018-04-07 17:00:00 6.8 14 Este 37 Este 0 -- -- 100
2018-04-07 16:00:00 6.9 17 Este 34 Este 0 -- -- 99
2018-04-07 15:00:00 7 16 Este 37 Este 0.2 -- -- 99
2018-04-07 14:00:00 6.9 17 Este 34 Sudeste 0 -- -- 99
2018-04-07 13:00:00 6.8 18 Este 41 Este 0 -- -- 99
2018-04-07 12:00:00 6.6 16 Este 41 Este 0 -- -- 99
2018-04-07 11:00:00 6.3 23 Este 41 Este 0 -- -- 99
2018-04-07 10:00:00 5.9 18 Este 42 Este 0 -- -- 99
2018-04-07 09:00:00 5.4 18 Este 34 Sudeste 0 -- -- 99
2018-04-07 08:00:00 5 12 Este 24 Este 0 -- -- 98
2018-04-07 07:00:00 5.1 6 Este 14 Este 0 -- -- 98
2018-04-07 06:00:00 5.2 8 Este 18 Sudeste 0 -- -- 98
2018-04-07 05:00:00 5.1 7 Este 26 Este 0 -- -- 97
2018-04-07 04:00:00 5.4 15 Este 32 Este 0 -- -- 97
2018-04-07 03:00:00 5.1 5 Este 14 Este 0 -- -- 94
2018-04-07 02:00:00 5.6 10 Este 24 Este 0 -- -- 83
2018-04-07 01:00:00 5.9 6 Este 21 Este 0 -- -- 78
2018-04-07 00:00:00 6.9 9 Este 29 Este 0 -- -- 64
2018-04-06 23:00:00 6.1 13 Este 24 Este 0 -- -- 77
2018-04-06 22:00:00 6.1 9 Este 24 Este 0 -- -- 87
2018-04-06 21:00:00 6.1 8 Este 19 Sudeste 0 -- -- 85
2018-04-06 20:00:00 6.8 12 Este 24 Este 0 -- -- 83
2018-04-06 19:00:00 7.6 12 Este 29 Este 0 -- -- 83
2018-04-06 18:00:00 8.8 13 Este 36 Este 0 -- -- 70
2018-04-06 17:00:00 10.1 15 Este 41 Este 0 -- -- 64
2018-04-06 16:00:00 11.1 15 Este 37 Sudeste 0 -- -- 61
2018-04-06 15:00:00 11.1 16 Este 36 Este 0 -- -- 62
2018-04-06 14:00:00 12.6 17 Este 39 Este 0 -- -- 62
2018-04-06 13:00:00 13.5 12 Sudeste 32 Este 0 -- -- 52
2018-04-06 12:00:00 12.2 11 Sudeste 34 Este 0 -- -- 55
2018-04-06 11:00:00 11.9 11 Sudeste 35 Este 0 -- -- 54
2018-04-06 10:00:00 10.2 12 Sudeste 36 Sudeste 0 -- -- 55
2018-04-06 09:00:00 8.1 9 Sudeste 25 Este 0 -- -- 62
2018-04-06 08:00:00 7.1 6 Sudeste 23 Este 0 -- -- 62
2018-04-06 07:00:00 7.2 7 Sudeste 21 Este 0 -- -- 55
2018-04-06 06:00:00 7 5 Sudeste 24 Este 0 -- -- 55
2018-04-06 05:00:00 6.1 3 Sudeste 20 Sudeste 0 -- -- 60
2018-04-06 04:00:00 6.2 3 Sudeste 18 Sudeste 0 -- -- 59
2018-04-06 03:00:00 6.9 7 Sudeste 21 Sudeste 0 -- -- 57
2018-04-06 02:00:00 6.8 6 Sudeste 21 Este 0 -- -- 63
2018-04-06 01:00:00 6.2 4 Sudeste 19 Sudeste 0 -- -- 68
2018-04-06 00:00:00 5.3 2 Sudeste 16 Sudeste 0 -- -- 75
2018-04-05 23:00:00 4.4 3 Sudeste 10 Este 0 -- -- 87
2018-04-05 22:00:00 4.7 2 Sudeste 9 Este 0 -- -- 85
2018-04-05 21:00:00 6.5 2 Este 11 Este 0 -- -- 78
2018-04-05 20:00:00 8 4 Este 21 Este 0 -- -- 73
2018-04-05 19:00:00 9 13 Este 31 Este 0 -- -- 70
2018-04-05 18:00:00 11 12 Este 33 Este 0 -- -- 60
2018-04-05 17:00:00 12.7 8 Este 29 Este 0 -- -- 53
2018-04-05 16:00:00 13.8 11 Este 35 Sudeste 0 -- -- 52
2018-04-05 15:00:00 13.8 13 Este 31 Este 0 -- -- 53
2018-04-05 14:00:00 13.9 14 Este 30 Este 0 -- -- 51
2018-04-05 13:00:00 14.6 8 Este 25 Sudeste 0 -- -- 46
2018-04-05 12:00:00 13.6 8 Sudeste 22 Sudeste 0 -- -- 45
2018-04-05 11:00:00 11 6 Oeste 18 Oeste 0 -- -- 60
2018-04-05 10:00:00 8.4 11 Oeste 26 Oeste 0 -- -- 70
2018-04-05 09:00:00 6 17 Oeste 32 Oeste 0 -- -- 79
2018-04-05 08:00:00 4.7 21 Oeste 47 Oeste 0 -- -- 83
2018-04-05 07:00:00 4.6 29 Oeste 53 Noroeste 0 -- -- 84
2018-04-05 06:00:00 5.2 23 Oeste 42 Oeste 0 -- -- 84
2018-04-05 05:00:00 5.1 15 Oeste 47 Oeste 0 -- -- 83
2018-04-05 04:00:00 5.4 24 Oeste 56 Noroeste 0 -- -- 80
2018-04-05 03:00:00 6.1 31 Oeste 61 Oeste 0 -- -- 77
2018-04-05 02:00:00 6.5 29 Oeste 66 Oeste 0 -- -- 73
2018-04-05 01:00:00 6.9 28 Oeste 57 Oeste 0 -- -- 71
2018-04-05 00:00:00 6.7 31 Oeste 59 Oeste 0 -- -- 70
2018-04-04 23:00:00 7 23 Oeste 57 Oeste 0 -- -- 68
2018-04-04 22:00:00 7.8 17 Oeste 39 Oeste 0 -- -- 64
2018-04-04 21:00:00 8 17 Oeste 39 Oeste 0 -- -- 64
2018-04-04 20:00:00 9.4 18 Noroeste 37 Noroeste 0 -- -- 59
2018-04-04 19:00:00 10.4 19 Oeste 46 Oeste 0 -- -- 54
2018-04-04 18:00:00 12.5 21 Oeste 43 Oeste 0 -- -- 42
2018-04-04 17:00:00 12 18 Oeste 42 Oeste 0 -- -- 47
2018-04-04 16:00:00 13.5 23 Oeste 42 Oeste 0 -- -- 41
2018-04-04 15:00:00 14.1 20 Oeste 38 Oeste 0 -- -- 40
2018-04-04 14:00:00 12.3 21 Oeste 39 Oeste 0 -- -- 42
2018-04-04 13:00:00 12.2 20 Oeste 42 Oeste 0 -- -- 46
2018-04-04 12:00:00 11 22 Oeste 41 Oeste 0 -- -- 46
2018-04-04 11:00:00 9.9 15 Oeste 40 Oeste 0 -- -- 54
2018-04-04 10:00:00 8.8 16 Oeste 31 Oeste 0 -- -- 59
2018-04-04 09:00:00 7.4 8 Oeste 29 Oeste 0 -- -- 64
2018-04-04 08:00:00 5.1 12 Oeste 20 Oeste 0 -- -- 66
2018-04-04 07:00:00 6.2 14 Oeste 44 Oeste 0 -- -- 61
2018-04-04 06:00:00 6.7 15 Oeste 27 Oeste 0 -- -- 65
2018-04-04 05:00:00 6.8 12 Oeste 27 Oeste 0 -- -- 69
2018-04-04 04:00:00 7.9 11 Sudoeste 27 Sudoeste 0 -- -- 66
2018-04-04 03:00:00 8.6 8 Sur 17 Sudoeste 0 -- -- 61
2018-04-04 02:00:00 7.1 2 Sur 13 Sudoeste 0 -- -- 63
2018-04-04 01:00:00 8.6 5 Sudoeste 16 Sudoeste 0 -- -- 57
2018-04-04 00:00:00 9.2 6 Sudoeste 23 Sudoeste 0 -- -- 55
2018-04-03 23:00:00 9.3 4 Sudoeste 18 Sudoeste 0 -- -- 56
2018-04-03 22:00:00 9.9 6 Sudoeste 25 Sur 0 -- -- 64
2018-04-03 21:00:00 10.4 6 Sur 18 Sur 0 -- -- 75
2018-04-03 20:00:00 10.6 0 Calma 10 Sudeste 0 -- -- 82
2018-04-03 19:00:00 11.5 6 Este 19 Este 0 -- -- 81
2018-04-03 18:00:00 13.3 9 Sudeste 24 Sudeste 0 -- -- 70
2018-04-03 17:00:00 13.6 9 Este 23 Sudeste 0 -- -- 70
2018-04-03 16:00:00 13.5 10 Este 26 Este 0 -- -- 66
2018-04-03 15:00:00 13.9 12 Este 24 Este 0 -- -- 64
2018-04-03 14:00:00 13.8 9 Este 23 Este 0 -- -- 62
2018-04-03 13:00:00 13.6 8 Este 17 Este 0 -- -- 58
2018-04-03 12:00:00 12.1 4 Este 9 Este 0 -- -- 59
2018-04-03 11:00:00 11.7 4 Este 9 Este 0 -- -- 57
2018-04-03 10:00:00 12.1 5 Oeste 9 Noroeste 0 -- -- 56
2018-04-03 09:00:00 9.6 6 Oeste 13 Oeste 0 -- -- 62
2018-04-03 08:00:00 8.9 4 Oeste 15 Oeste 0 -- -- 57
2018-04-03 07:00:00 8.9 8 Oeste 17 Noroeste 0 -- -- 54
2018-04-03 06:00:00 8.9 8 Oeste 13 Oeste 0 -- -- 61
2018-04-03 05:00:00 9 5 Sudoeste 12 Sudoeste 0 -- -- 62
2018-04-03 04:00:00 9.4 4 Sudoeste 14 Sur 0 -- -- 62
2018-04-03 03:00:00 9.4 6 Sur 14 Sudoeste 0 -- -- 62
2018-04-03 02:00:00 9.7 0 Calma 13 Sur 0 -- -- 60
2018-04-03 01:00:00 10.4 8 Sur 15 Sur 0 -- -- 56
2018-04-03 00:00:00 9.7 10 Sudoeste 18 Sudoeste 0 -- -- 59
2018-04-02 23:00:00 9.7 9 Sur 23 Sur 0 -- -- 58
2018-04-02 22:00:00 7.9 12 Sur 20 Sur 0 -- -- 64
2018-04-02 21:00:00 5.8 2 Sudeste 10 Sudeste 0 -- -- 75
2018-04-02 20:00:00 6.8 3 Este 14 Este 0 -- -- 73
2018-04-02 19:00:00 7.9 6 Este 21 Este 0 -- -- 70
2018-04-02 18:00:00 9 9 Este 22 Este 0 -- -- 64
2018-04-02 17:00:00 10.4 10 Este 23 Este 0 -- -- 55
2018-04-02 16:00:00 10.6 11 Este 26 Este 0 -- -- 52
2018-04-02 15:00:00 10.9 14 Este 27 Este 0 -- -- 49
2018-04-02 14:00:00 9.9 9 Este 27 Sudeste 0 -- -- 41
2018-04-02 13:00:00 8.7 14 Este 27 Este 0 -- -- 40
2018-04-02 12:00:00 7.9 13 Este 28 Este 0 -- -- 41
2018-04-02 11:00:00 6.7 10 Sudeste 27 Este 0 -- -- 39
2018-04-02 10:00:00 5.8 9 Sudeste 26 Este 0 -- -- 41
2018-04-02 09:00:00 5.5 8 Sudeste 27 Nordeste 0 -- -- 43
2018-04-02 08:00:00 4.8 6 Sudeste 21 Sudeste 0 -- -- 47
2018-04-02 07:00:00 5.4 6 Sudeste 31 Sudeste 0 -- -- 44
2018-04-02 06:00:00 5.7 9 Sudeste 31 Sur 0 -- -- 43
2018-04-02 05:00:00 6.2 10 Sudeste 27 Sudeste 0 -- -- 36
2018-04-02 04:00:00 6 9 Sudeste 25 Sudeste 0 -- -- 40
2018-04-02 03:00:00 6.1 11 Sudeste 28 Sudeste 0 -- -- 44
2018-04-02 02:00:00 5.3 8 Sudeste 23 Sudeste 0 -- -- 49
2018-04-02 01:00:00 4.7 4 Sudeste 14 Sudeste 0 -- -- 54
2018-04-02 00:00:00 4.2 4 Sudeste 22 Sudeste 0 -- -- 64
2018-04-01 23:00:00 3.5 3 Este 8 Sudeste 0 -- -- 77
2018-04-01 22:00:00 4.3 0 Calma 6 Sudeste 0 -- -- 73
2018-04-01 21:00:00 5.1 2 Sudeste 14 Este 0 -- -- 67
2018-04-01 20:00:00 6.7 8 Este 23 Este 0 -- -- 61
2018-04-01 19:00:00 8.3 9 Este 30 Este 0 -- -- 60
2018-04-01 18:00:00 10.3 13 Este 26 Este 0 -- -- 52
2018-04-01 17:00:00 11.5 12 Este 28 Este 0 -- -- 50
2018-04-01 16:00:00 11.8 12 Este 28 Este 0 -- -- 50
2018-04-01 15:00:00 12.4 12 Este 28 Este 0 -- -- 46
2018-04-01 14:00:00 11.7 12 Este 25 Este 0 -- -- 43
2018-04-01 13:00:00 11.7 6 Este 15 Sudeste 0 -- -- 46
2018-04-01 12:00:00 10.3 5 Noroeste 18 Oeste 0 -- -- 50
2018-04-01 11:00:00 8.7 8 Oeste 27 Oeste 0 -- -- 54
2018-04-01 10:00:00 5.9 15 Oeste 29 Oeste 0 -- -- 57
2018-04-01 09:00:00 3.9 12 Oeste 36 Noroeste 0 -- -- 62
2018-04-01 08:00:00 3.1 15 Oeste 39 Oeste 0 -- -- 64
2018-04-01 07:00:00 2.8 16 Oeste 42 Oeste 0 -- -- 65
2018-04-01 06:00:00 1.8 18 Noroeste 42 Noroeste 0 -- -- 72
2018-04-01 05:00:00 -0.1 13 Oeste 22 Oeste 0 -- -- 81
2018-04-01 04:00:00 0.3 9 Oeste 22 Oeste 0 -- -- 78
2018-04-01 03:00:00 0.4 10 Oeste 22 Oeste 0 -- -- 80
2018-04-01 02:00:00 0.7 10 Oeste 22 Oeste 0 -- -- 78
2018-04-01 01:00:00 1.2 8 Oeste 23 Oeste 0 -- -- 74
2018-04-01 00:00:00 1.7 13 Oeste 33 Noroeste 0 -- -- 73
2018-03-31 23:00:00 2.2 14 Noroeste 30 Oeste 0 -- -- 68
2018-03-31 22:00:00 3.1 12 Noroeste 39 Noroeste 0 -- -- 62
2018-03-31 21:00:00 4.3 16 Noroeste 49 Oeste 0 -- -- 51
2018-03-31 20:00:00 5.2 24 Oeste 55 Noroeste 0 -- -- 48
2018-03-31 19:00:00 5.9 32 Noroeste 57 Oeste 0 -- -- 47
2018-03-31 18:00:00 7.1 28 Noroeste 63 Oeste 0 -- -- 46
2018-03-31 17:00:00 7 32 Noroeste 69 Oeste 0 -- -- 45
2018-03-31 16:00:00 7.4 37 Noroeste 67 Oeste 0 -- -- 45
2018-03-31 15:00:00 6.7 32 Oeste 80 Oeste 0 -- -- 44
2018-03-31 14:00:00 6.7 39 Oeste 85 Oeste 0 -- -- 44
2018-03-31 13:00:00 4.9 37 Oeste 70 Oeste 0 -- -- 51
2018-03-31 12:00:00 4.8 35 Oeste 77 Sudoeste 0 -- -- 53
2018-03-31 11:00:00 3.6 32 Oeste 64 Oeste 0 -- -- 59
2018-03-31 10:00:00 3.4 34 Oeste 67 Oeste 0 -- -- 64
2018-03-31 09:00:00 1.9 34 Oeste 62 Oeste 0 -- -- 70
2018-03-31 08:00:00 1.4 33 Oeste 70 Oeste 0 -- -- 70
2018-03-31 07:00:00 1.3 36 Oeste 72 Oeste 0 -- -- 68
2018-03-31 06:00:00 0.7 33 Oeste 88 Oeste 0 -- -- 67
2018-03-31 05:00:00 1.2 34 Oeste 65 Oeste 0 -- -- 75
2018-03-31 04:00:00 2.1 32 Oeste 63 Oeste 0 -- -- 79
2018-03-31 03:00:00 2.6 14 Oeste 28 Oeste 0 -- -- 63
2018-03-31 02:00:00 2.4 4 Oeste 42 Oeste 0 -- -- 58
2018-03-31 01:00:00 2.6 17 Oeste 49 Oeste 0 -- -- 53
2018-03-31 00:00:00 2.5 24 Oeste 47 Oeste 0 -- -- 50
2018-03-30 23:00:00 2.7 16 Oeste 35 Oeste 0 -- -- 50
2018-03-30 22:00:00 3.3 17 Oeste 32 Oeste 0 -- -- 50
2018-03-30 21:00:00 3.6 7 Oeste 22 Sudoeste 0 -- -- 54
2018-03-30 20:00:00 5.7 11 Oeste 26 Sudoeste 0 -- -- 51
2018-03-30 19:00:00 6.9 9 Oeste 25 Oeste 0 -- -- 59
2018-03-30 18:00:00 7.2 15 Oeste 28 Oeste 0 -- -- 67
2018-03-30 17:00:00 5.7 15 Oeste 30 Oeste 0.8 -- -- 86
2018-03-30 16:00:00 1.8 14 Oeste 27 Oeste 1.8 -- -- 93
2018-03-30 15:00:00 4.1 15 Oeste 32 Oeste 0.2 -- -- 79
2018-03-30 14:00:00 8.2 10 Oeste 31 Oeste 0 -- -- 58
2018-03-30 13:00:00 7.3 14 Noroeste 30 Noroeste 0 -- -- 63
2018-03-30 12:00:00 5.6 13 Noroeste 33 Noroeste 0 -- -- 69
2018-03-30 11:00:00 7.3 13 Noroeste 36 Oeste 0 -- -- 59
2018-03-30 10:00:00 6.2 18 Oeste 39 Oeste 0 -- -- 59
2018-03-30 09:00:00 4 20 Oeste 36 Oeste 0 -- -- 63
2018-03-30 08:00:00 4 19 Oeste 43 Oeste 0 -- -- 61
2018-03-30 07:00:00 3.2 16 Oeste 25 Oeste 0 -- -- 63
2018-03-30 06:00:00 2.4 8 Oeste 18 Oeste 0 -- -- 63
2018-03-30 05:00:00 2.9 10 Oeste 19 Oeste 0 -- -- 60
2018-03-30 04:00:00 2.3 8 Noroeste 17 Noroeste 0 -- -- 52
2018-03-30 03:00:00 3.6 4 Noroeste 17 Sudoeste 0 -- -- 48
2018-03-30 02:00:00 5.6 8 Sur 17 Sudoeste 0 -- -- 43
2018-03-30 01:00:00 5.1 6 Sur 14 Sur 0 -- -- 67
2018-03-30 00:00:00 5.3 2 Sur 12 Sur 0 -- -- 79
2018-03-29 23:00:00 4.2 0 Calma 5 Este 0 -- -- 88
2018-03-29 22:00:00 4.2 2 Este 14 Este 0 -- -- 86
2018-03-29 21:00:00 5.8 5 Sudeste 23 Este 0 -- -- 86
2018-03-29 20:00:00 6.6 8 Este 25 Este 0 -- -- 85
2018-03-29 19:00:00 8.2 11 Este 29 Este 0 -- -- 78
2018-03-29 18:00:00 9.3 14 Este 32 Este 0 -- -- 73
2018-03-29 17:00:00 8.9 9 Este 31 Este 0 -- -- 76
2018-03-29 16:00:00 9.4 13 Este 30 Este 0 -- -- 72
2018-03-29 15:00:00 11 10 Este 33 Este 0 -- -- 67
2018-03-29 14:00:00 12.2 10 Sudeste 24 Este 0 -- -- 60
2018-03-29 13:00:00 11.7 6 Oeste 25 Oeste 0 -- -- 55
2018-03-29 12:00:00 11.2 13 Oeste 27 Noroeste 0 -- -- 58
2018-03-29 11:00:00 9.5 15 Noroeste 40 Noroeste 0 -- -- 62
2018-03-29 10:00:00 8.2 18 Oeste 37 Oeste 0 -- -- 73
2018-03-29 09:00:00 5.3 17 Oeste 37 Noroeste 0 -- -- 89
2018-03-29 08:00:00 4.2 18 Oeste 41 Noroeste 0 -- -- 90
2018-03-29 07:00:00 5.6 22 Oeste 43 Oeste 0 -- -- 86
2018-03-29 06:00:00 5.1 28 Noroeste 55 Noroeste 0 -- -- 88
2018-03-29 05:00:00 5.6 29 Noroeste 49 Noroeste 0 -- -- 86
2018-03-29 04:00:00 6.5 29 Noroeste 51 Noroeste 0 -- -- 80
2018-03-29 03:00:00 9.3 31 Oeste 53 Oeste 0 -- -- 52
2018-03-29 02:00:00 10.2 27 Oeste 45 Noroeste 0 -- -- 48
2018-03-29 01:00:00 10.4 21 Noroeste 32 Noroeste 0 -- -- 47
2018-03-29 00:00:00 10.2 12 Oeste 23 Noroeste 0 -- -- 46
2018-03-28 23:00:00 10.2 8 Oeste 14 Oeste 0 -- -- 48
2018-03-28 22:00:00 9.4 6 Sudoeste 9 Sudoeste 0 -- -- 56
2018-03-28 21:00:00 10.5 4 Sur 9 Sur 0 -- -- 50
2018-03-28 20:00:00 12.1 0 Calma 10 Sudeste 0 -- -- 46
2018-03-28 19:00:00 14.5 5 Sudeste 18 Sudeste 0 -- -- 40
2018-03-28 18:00:00 16.1 9 Este 22 Este 0 -- -- 39
2018-03-28 17:00:00 17 10 Este 23 Este 0 -- -- 39
2018-03-28 16:00:00 19.2 4 Este 26 Oeste 0 -- -- 36
2018-03-28 15:00:00 18.8 15 Oeste 30 Oeste 0 -- -- 29
2018-03-28 14:00:00 17.3 19 Oeste 44 Oeste 0 -- -- 34
2018-03-28 13:00:00 15.5 26 Oeste 49 Oeste 0 -- -- 35
2018-03-28 12:00:00 14.7 19 Oeste 44 Oeste 0 -- -- 39
2018-03-28 11:00:00 12.7 22 Noroeste 53 Oeste 0 -- -- 38
2018-03-28 10:00:00 11.6 32 Oeste 57 Oeste 0 -- -- 44
2018-03-28 09:00:00 9.8 30 Noroeste 54 Noroeste 0 -- -- 57
2018-03-28 08:00:00 9 35 Oeste 63 Oeste 0 -- -- 56
2018-03-28 07:00:00 9 37 Oeste 58 Noroeste 0 -- -- 61
2018-03-28 06:00:00 8.6 32 Oeste 59 Oeste 0 -- -- 68
2018-03-28 05:00:00 8.6 33 Noroeste 57 Oeste 0 -- -- 69
2018-03-28 04:00:00 8.5 35 Noroeste 59 Noroeste 0 -- -- 73
2018-03-28 03:00:00 8.9 34 Noroeste 62 Oeste 0 -- -- 76
2018-03-28 02:00:00 8.8 38 Noroeste 60 Noroeste 0 -- -- 78
2018-03-28 01:00:00 8.6 35 Noroeste 60 Noroeste 0 -- -- 81
2018-03-28 00:00:00 8.9 32 Noroeste 58 Oeste 0 -- -- 78
2018-03-27 23:00:00 8.4 27 Oeste 46 Oeste 0 -- -- 82
2018-03-27 22:00:00 8.6 19 Oeste 41 Oeste 0 -- -- 81
2018-03-27 21:00:00 9.2 23 Oeste 49 Noroeste 0 -- -- 78
2018-03-27 20:00:00 10.5 26 Oeste 52 Noroeste 0 -- -- 71
2018-03-27 19:00:00 11.7 31 Noroeste 57 Noroeste 0 -- -- 64
2018-03-27 18:00:00 13.2 32 Noroeste 69 Noroeste 0 -- -- 56
2018-03-27 17:00:00 13.8 32 Noroeste 65 Noroeste 0 -- -- 55
2018-03-27 16:00:00 13.2 36 Noroeste 69 Noroeste 0 -- -- 59
2018-03-27 15:00:00 12.8 31 Noroeste 70 Oeste 0 -- -- 57
2018-03-27 14:00:00 11.6 32 Noroeste 74 Noroeste 0 -- -- 62
2018-03-27 13:00:00 10.5 39 Noroeste 77 Noroeste 0 -- -- 63
2018-03-27 12:00:00 9.1 41 Oeste 78 Oeste 0 -- -- 69
2018-03-27 11:00:00 7 35 Noroeste 68 Oeste 0 -- -- 79
2018-03-27 10:00:00 5.3 35 Noroeste 73 Noroeste 0 -- -- 87
2018-03-27 09:00:00 4.3 41 Noroeste 68 Oeste 0 -- -- 90
2018-03-27 08:00:00 3.7 38 Noroeste 68 Oeste 0 -- -- 86
2018-03-27 07:00:00 3.2 33 Noroeste 64 Noroeste 0 -- -- 83
2018-03-27 06:00:00 2.1 42 Noroeste 67 Noroeste 0 -- -- 86
2018-03-27 05:00:00 1.5 41 Noroeste 72 Oeste 0 -- -- 90
2018-03-27 04:00:00 1.4 44 Noroeste 77 Noroeste 0 -- -- 90
2018-03-27 03:00:00 1.3 45 Noroeste 80 Noroeste 0 -- -- 89
2018-03-27 02:00:00 1.4 50 Noroeste 80 Noroeste 0 -- -- 88
2018-03-27 01:00:00 1.7 49 Noroeste 78 Oeste 0 -- -- 84
2018-03-27 00:00:00 1.9 48 Noroeste 84 Oeste 0 -- -- 83